Time;durP1;ratioP1;P1;durP2;ratioP2;P2;SDS_P1;SDS_P2;PMS_P1;PMS_P2;Temp;Humidity;BMP_temperature;BMP_pressure;BME280_temperature;BME280_humidity;BME280_pressure;Samples;Min_cycle;Max_cycle;Signal;HPM_P1;HPM_P2
2021/07/30 00:00:06;;;;;;;19.00;15.15;;;;;;;21.95;78.51;98875.30;129810;1093;23146;-59
2021/07/30 00:02:35;;;;;;;17.60;14.90;;;;;;;21.93;78.88;98874.86;129812;1093;22552;-60
2021/07/30 00:05:06;;;;;;;20.73;14.38;;;;;;;21.91;78.50;98866.08;129649;1093;114094;-61
2021/07/30 00:07:35;;;;;;;19.55;14.80;;;;;;;21.88;78.57;98878.67;129805;1093;22900;-61
2021/07/30 00:10:05;;;;;;;20.05;14.40;;;;;;;21.87;78.58;98865.95;129651;1091;115002;-62
2021/07/30 00:12:35;;;;;;;19.58;14.25;;;;;;;21.85;78.60;98859.95;129771;1093;22578;-61
2021/07/30 00:15:06;;;;;;;22.15;14.15;;;;;;;21.83;78.63;98862.26;129669;1093;114137;-61
2021/07/30 00:17:35;;;;;;;23.30;14.65;;;;;;;21.80;78.64;98852.66;129782;1093;22540;-60
2021/07/30 00:20:05;;;;;;;23.40;14.68;;;;;;;21.79;78.70;98858.55;129761;1092;23366;-60
2021/07/30 00:22:34;;;;;;;37.48;15.73;;;;;;;21.75;78.47;98846.56;129641;1092;113762;-60
2021/07/30 00:25:05;;;;;;;24.80;16.15;;;;;;;21.72;78.71;98855.58;129799;1093;22593;-60
2021/07/30 00:27:35;;;;;;;30.43;15.78;;;;;;;21.67;78.70;98853.84;129711;1093;114393;-60
2021/07/30 00:30:04;;;;;;;20.95;14.18;;;;;;;21.62;78.71;98851.31;129791;1092;22659;-61
2021/07/30 00:32:33;;;;;;;18.50;14.85;;;;;;;21.59;78.80;98846.45;129799;1093;22555;-61
2021/07/30 00:35:03;;;;;;;19.18;14.55;;;;;;;21.57;78.86;98845.19;129663;1092;113805;-62
2021/07/30 00:37:35;;;;;;;21.13;15.23;;;;;;;21.52;78.83;98840.67;129826;1093;22999;-62
2021/07/30 00:40:05;;;;;;;19.68;13.58;;;;;;;21.49;78.78;98841.39;129683;1093;113986;-62
2021/07/30 00:42:34;;;;;;;16.85;12.00;;;;;;;21.45;78.58;98838.50;129799;1093;22620;-62
2021/07/30 00:45:04;;;;;;;19.78;11.95;;;;;;;21.42;78.33;98841.95;129734;1093;114841;-63
2021/07/30 00:47:33;;;;;;;18.20;11.55;;;;;;;21.38;78.12;98842.98;129761;1092;22598;-62
2021/07/30 00:50:05;;;;;;;23.02;11.08;;;;;;;21.35;78.10;98838.16;129771;1091;22556;-62
2021/07/30 00:52:35;;;;;;;15.45;9.85;;;;;;;21.30;77.74;98836.41;129655;1093;114198;-62
2021/07/30 00:55:05;;;;;;;13.40;9.43;;;;;;;21.28;77.74;98835.13;129755;1093;22616;-62
2021/07/30 00:57:34;;;;;;;14.95;9.65;;;;;;;21.26;77.71;98831.89;129690;1093;114206;-62
2021/07/30 01:00:04;;;;;;;14.00;9.40;;;;;;;21.24;77.58;98842.51;129805;1091;25287;-62
2021/07/30 01:02:33;;;;;;;16.05;9.08;;;;;;;21.22;77.54;98837.31;129824;1092;22591;-62
2021/07/30 01:05:03;;;;;;;15.38;9.43;;;;;;;21.20;77.39;98831.33;129651;1093;113880;-62
2021/07/30 01:07:32;;;;;;;13.58;9.58;;;;;;;21.18;77.08;98833.60;129799;1093;22603;-62
2021/07/30 01:10:01;;;;;;;12.70;9.60;;;;;;;21.14;77.07;98836.25;129676;1093;113129;-62
2021/07/30 01:12:30;;;;;;;14.00;9.30;;;;;;;21.13;76.77;98831.05;129778;1092;22565;-62
2021/07/30 01:15:00;;;;;;;11.18;8.98;;;;;;;21.11;76.96;98838.89;129692;1093;114334;-63
2021/07/30 01:17:28;;;;;;;10.85;8.43;;;;;;;21.10;76.85;98831.73;129780;1093;23452;-62
2021/07/30 01:19:57;;;;;;;13.08;8.10;;;;;;;21.08;76.63;98848.69;129759;1092;23485;-62
2021/07/30 01:22:35;;;;;;;11.13;9.15;;;;;;;21.07;76.59;98841.53;129665;1093;114112;-61
2021/07/30 01:25:04;;;;;;;11.90;8.30;;;;;;;21.05;76.37;98838.32;129724;1093;22585;-62
2021/07/30 01:27:33;;;;;;;10.80;8.43;;;;;;;21.02;76.36;98850.08;129592;1093;114206;-62
2021/07/30 01:30:02;;;;;;;10.88;8.80;;;;;;;21.01;76.21;98840.16;129712;1093;22567;-62
2021/07/30 01:32:31;;;;;;;10.80;8.60;;;;;;;21.00;76.26;98846.03;129726;1093;23006;-62
2021/07/30 01:35:02;;;;;;;11.30;8.60;;;;;;;20.99;76.21;98853.53;129609;1093;113788;-62
2021/07/30 01:37:32;;;;;;;13.30;8.35;;;;;;;20.96;76.04;98856.17;129736;1094;22583;-62
2021/07/30 01:40:01;;;;;;;10.00;8.78;;;;;;;20.92;76.18;98850.50;127922;1093;113815;-60
2021/07/30 01:42:29;;;;;;;11.20;8.50;;;;;;;20.90;75.97;98847.29;125179;1095;25643;-60
2021/07/30 01:44:59;;;;;;;8.73;7.93;;;;;;;20.90;76.17;98849.25;125114;1096;115300;-62
2021/07/30 01:47:28;;;;;;;11.60;7.67;;;;;;;20.88;76.11;98857.09;125100;1094;26243;-60
2021/07/30 01:49:56;;;;;;;10.68;8.60;;;;;;;20.85;76.04;98857.77;125079;1093;23060;-61
2021/07/30 01:52:25;;;;;;;13.03;8.13;;;;;;;20.82;76.04;98862.02;125114;1094;113882;-60
2021/07/30 01:54:55;;;;;;;12.03;8.03;;;;;;;20.79;76.19;98859.92;129633;1094;23251;-61
2021/07/30 01:57:23;;;;;;;13.08;7.78;;;;;;;20.76;76.19;98860.63;129682;1093;114999;-61
2021/07/30 02:00:01;;;;;;;17.43;9.20;;;;;;;20.74;76.34;98863.74;129779;1092;22546;-60
2021/07/30 02:02:39;;;;;;;18.53;8.18;;;;;;;20.73;76.24;98870.42;129794;1093;23408;-60
2021/07/30 02:05:09;;;;;;;21.88;8.80;;;;;;;20.69;76.30;98871.44;129681;1093;114474;-61
2021/07/30 02:07:38;;;;;;;14.18;9.48;;;;;;;20.67;76.33;98866.23;129814;1093;22545;-60
2021/07/30 02:10:07;;;;;;;14.40;8.73;;;;;;;20.64;76.51;98861.38;129678;1092;113999;-60
2021/07/30 02:14:15;;;;;;;13.28;8.40;;;;;;;20.63;76.54;98862.52;129774;1093;22656;-61
2021/07/30 02:15:39;;;;;;;16.15;8.75;;;;;;;20.63;76.54;98865.30;129727;1093;115470;-60
2021/07/30 02:18:08;;;;;;;10.53;8.68;;;;;;;20.62;76.57;98876.73;129826;1093;22546;-60
2021/07/30 02:20:37;;;;;;;11.83;8.68;;;;;;;20.60;76.54;98874.30;129801;1092;23311;-61
2021/07/30 02:23:06;;;;;;;9.73;8.00;;;;;;;20.60;76.69;98879.84;129691;1092;113904;-61
2021/07/30 02:25:35;;;;;;;11.05;8.80;;;;;;;20.59;76.72;98875.45;129837;1092;23449;-61
2021/07/30 02:28:04;;;;;;;11.90;8.88;;;;;;;20.58;76.59;98886.86;129681;1092;113926;-60
2021/07/30 02:30:32;;;;;;;10.00;8.28;;;;;;;20.54;76.49;98881.19;129800;1092;22574;-60
2021/07/30 02:33:01;;;;;;;11.10;9.10;;;;;;;20.50;76.58;98887.73;129699;1092;114045;-61
2021/07/30 02:35:30;;;;;;;10.05;8.68;;;;;;;20.47;76.63;98889.23;129774;1093;22593;-60
2021/07/30 02:37:59;;;;;;;10.00;8.28;;;;;;;20.43;76.70;98891.05;129725;1093;23217;-60
2021/07/30 02:40:28;;;;;;;10.90;8.78;;;;;;;20.40;77.05;98892.53;127126;1093;113615;-61
2021/07/30 02:42:57;;;;;;;12.00;8.55;;;;;;;20.35;77.23;98892.70;125096;1092;26105;-60
2021/07/30 02:45:26;;;;;;;10.88;9.13;;;;;;;20.29;77.17;98896.83;129737;1093;114139;-60
2021/07/30 02:47:55;;;;;;;11.33;9.28;;;;;;;20.24;77.32;98898.98;129876;1092;22533;-61
2021/07/30 02:50:23;;;;;;;11.35;9.50;;;;;;;20.20;77.74;98906.35;129819;1093;22572;-61
2021/07/30 02:52:52;;;;;;;14.15;9.95;;;;;;;20.15;77.94;98906.53;129692;1092;113943;-61
2021/07/30 02:55:21;;;;;;;10.55;9.43;;;;;;;20.08;77.93;98907.05;129827;1093;22611;-61
2021/07/30 02:57:50;;;;;;;11.13;10.03;;;;;;;20.00;78.10;98908.75;129695;1092;113954;-61
2021/07/30 03:00:19;;;;;;;10.83;9.30;;;;;;;19.93;78.31;98913.98;129792;1093;22589;-62
2021/07/30 03:02:49;;;;;;;10.55;9.50;;;;;;;19.87;78.64;98922.82;129784;1093;22551;-61
2021/07/30 03:05:19;;;;;;;10.73;9.68;;;;;;;19.83;79.16;98927.39;129719;1092;114143;-61
2021/07/30 03:07:48;;;;;;;12.18;9.25;;;;;;;19.81;79.16;98915.84;129788;1093;22568;-61
2021/07/30 03:10:18;;;;;;;15.85;10.53;;;;;;;19.82;79.65;98923.00;129722;1092;114088;-61
2021/07/30 03:12:47;;;;;;;11.10;9.80;;;;;;;19.81;79.71;98924.95;129835;1093;22553;-61
2021/07/30 03:15:15;;;;;;;13.25;10.40;;;;;;;19.83;79.91;98927.39;129709;1092;115900;-61
2021/07/30 03:18:04;;;;;;;15.23;10.23;;;;;;;19.85;80.23;98934.21;129840;1093;23092;-61
2021/07/30 03:20:33;;;;;;;12.30;10.03;;;;;;;19.89;80.24;98932.41;129797;1093;22585;-62
2021/07/30 03:23:02;;;;;;;11.65;9.38;;;;;;;19.95;80.04;98941.30;129707;1093;114006;-62
2021/07/30 03:25:31;;;;;;;16.33;10.45;;;;;;;19.99;79.80;98936.73;129821;1093;22544;-62
2021/07/30 03:28:00;;;;;;;13.48;11.08;;;;;;;20.04;80.19;98939.31;129721;1092;116128;-62
2021/07/30 03:30:29;;;;;;;17.93;11.93;;;;;;;20.11;80.25;98951.45;129803;1093;22585;-62
2021/07/30 03:32:58;;;;;;;13.45;12.00;;;;;;;20.17;79.91;98954.04;129706;1093;114213;-62
2021/07/30 03:35:27;;;;;;;13.85;11.13;;;;;;;20.22;80.11;98957.41;129822;1093;22678;-62
2021/07/30 03:37:57;;;;;;;12.48;10.93;;;;;;;20.28;79.80;98961.61;129853;1093;22619;-62
2021/07/30 03:40:25;;;;;;;14.23;10.35;;;;;;;20.34;79.68;98970.53;129737;1093;115066;-62
2021/07/30 03:42:57;;;;;;;13.23;9.85;;;;;;;20.40;79.43;98967.25;129802;1093;22521;-62
2021/07/30 03:45:27;;;;;;;16.63;10.88;;;;;;;20.46;79.32;98971.45;129692;1092;115140;-62
2021/07/30 03:47:55;;;;;;;16.05;9.83;;;;;;;20.53;79.13;98967.31;129798;1092;22536;-60
2021/07/30 03:50:24;;;;;;;13.68;10.90;;;;;;;20.58;78.71;98981.77;129813;1092;22577;-60
2021/07/30 03:52:53;;;;;;;12.58;9.23;;;;;;;20.64;78.61;98977.64;129743;1092;114529;-60
2021/07/30 03:55:22;;;;;;;11.38;9.78;;;;;;;20.70;78.65;98981.84;129823;1092;22580;-60
2021/07/30 03:57:51;;;;;;;13.38;9.68;;;;;;;20.76;78.22;98993.53;129713;1092;115785;-61
2021/07/30 04:00:20;;;;;;;16.10;9.53;;;;;;;20.80;77.98;98988.91;129805;1093;22563;-61
2021/07/30 04:02:49;;;;;;;17.00;9.08;;;;;;;20.85;77.86;98997.03;129809;1092;22562;-61
2021/07/30 04:05:19;;;;;;;12.25;9.80;;;;;;;20.90;77.57;98996.83;129688;1093;113668;-61
2021/07/30 04:07:47;;;;;;;22.98;10.33;;;;;;;20.96;77.48;98991.88;129813;1092;22587;-61
2021/07/30 04:10:16;;;;;;;20.88;9.55;;;;;;;21.06;77.67;98994.25;129702;1092;113982;-61
2021/07/30 04:12:47;;;;;;;15.15;9.38;;;;;;;21.16;77.06;98997.40;129799;1093;22621;-62
2021/07/30 04:15:16;;;;;;;11.78;9.65;;;;;;;21.27;76.95;98997.81;129700;1093;114907;-62
2021/07/30 04:17:48;;;;;;;12.28;8.80;;;;;;;21.37;76.47;99002.10;129806;1093;22615;-62
2021/07/30 04:20:17;;;;;;;13.78;9.40;;;;;;;21.44;76.24;99008.72;129788;1092;22592;-61
2021/07/30 04:22:46;;;;;;;11.53;9.10;;;;;;;21.52;75.57;99004.22;129700;1093;113983;-62
2021/07/30 04:25:15;;;;;;;11.40;8.95;;;;;;;21.57;75.25;99001.24;129777;1092;22563;-61
2021/07/30 04:27:44;;;;;;;13.18;8.85;;;;;;;21.63;74.95;98997.11;129681;1092;114057;-61
2021/07/30 04:30:13;;;;;;;13.03;9.30;;;;;;;21.70;74.79;98999.30;129794;1093;22571;-61
2021/07/30 04:32:42;;;;;;;10.53;7.73;;;;;;;21.75;74.69;99001.86;129785;1093;22623;-61
2021/07/30 04:35:10;;;;;;;19.25;9.08;;;;;;;21.81;74.47;98998.50;129681;1093;113645;-61
2021/07/30 04:37:39;;;;;;;13.38;9.20;;;;;;;21.85;73.62;98993.89;129777;1091;23597;-61
2021/07/30 04:40:08;;;;;;;11.95;9.03;;;;;;;21.91;73.89;98999.22;129701;1093;114185;-61
2021/07/30 04:42:37;;;;;;;14.00;8.98;;;;;;;21.96;73.61;98996.20;129838;1093;22549;-61
2021/07/30 04:45:07;;;;;;;12.85;9.45;;;;;;;22.01;73.32;99007.11;129687;1092;114598;-62
2021/07/30 04:47:36;;;;;;;11.38;9.65;;;;;;;22.07;73.18;99011.28;129741;1093;22601;-62
2021/07/30 04:50:05;;;;;;;12.70;8.88;;;;;;;22.12;72.88;99005.48;129798;1092;22589;-62
2021/07/30 04:52:34;;;;;;;12.38;9.45;;;;;;;22.13;72.62;98999.59;129686;1093;114395;-62
2021/07/30 04:55:17;;;;;;;14.15;8.23;;;;;;;22.24;72.19;99008.25;129843;1093;22614;-62
2021/07/30 04:57:46;;;;;;;12.50;8.85;;;;;;;22.31;71.83;99010.45;129677;1093;114078;-62
2021/07/30 05:00:15;;;;;;;12.00;8.45;;;;;;;22.37;71.29;99000.72;129774;1093;22633;-62
2021/07/30 05:02:44;;;;;;;11.98;8.35;;;;;;;22.42;71.12;99001.30;129746;1093;23539;-62
2021/07/30 05:05:13;;;;;;;15.58;8.50;;;;;;;22.48;70.50;99005.47;129717;1093;114789;-61
2021/07/30 05:07:43;;;;;;;11.88;9.15;;;;;;;22.56;70.31;99004.52;129835;1092;22530;-61
2021/07/30 05:10:12;;;;;;;16.88;8.70;;;;;;;22.66;70.28;98997.66;129702;1092;114059;-61
2021/07/30 05:12:44;;;;;;;11.93;8.28;;;;;;;22.80;69.64;99000.09;129796;1092;23148;-62
2021/07/30 05:15:14;;;;;;;14.53;7.63;;;;;;;22.90;69.46;98997.64;129627;1093;115080;-61
2021/07/30 05:17:43;;;;;;;9.83;7.30;;;;;;;23.18;68.70;99002.40;129791;1093;22583;-61
2021/07/30 05:20:12;;;;;;;14.58;9.23;;;;;;;23.50;68.20;99009.66;129838;1093;22546;-62
2021/07/30 05:22:41;;;;;;;16.68;8.10;;;;;;;23.90;67.20;99003.97;129671;1093;114092;-62
2021/07/30 05:25:12;;;;;;;9.65;7.38;;;;;;;24.31;66.23;99010.16;129803;1092;22547;-61
2021/07/30 05:27:41;;;;;;;12.68;7.43;;;;;;;24.74;65.22;99011.95;129660;1093;113893;-62
2021/07/30 05:30:11;;;;;;;16.75;8.88;;;;;;;25.17;63.64;99007.30;129776;1093;22631;-62
2021/07/30 05:32:40;;;;;;;12.55;7.70;;;;;;;25.58;62.12;99012.09;129791;1093;22580;-63
2021/07/30 05:35:10;;;;;;;19.03;7.85;;;;;;;25.98;60.89;99014.43;129693;1093;115729;-63
2021/07/30 05:37:39;;;;;;;13.73;7.60;;;;;;;26.31;59.97;99011.02;129796;1093;22613;-62
2021/07/30 05:40:08;;;;;;;8.78;6.25;;;;;;;26.64;59.31;99012.31;129703;1093;113936;-62
2021/07/30 05:42:37;;;;;;;16.13;7.98;;;;;;;26.99;58.18;99006.41;129821;1093;22572;-61
2021/07/30 05:45:10;;;;;;;8.05;6.35;;;;;;;27.28;57.15;99015.95;129649;1092;114069;-63
2021/07/30 05:47:39;;;;;;;12.55;6.93;;;;;;;27.56;56.78;99019.11;129793;1092;22610;-61
2021/07/30 05:50:09;;;;;;;10.98;7.10;;;;;;;27.75;55.23;99015.31;129783;1093;22554;-60
2021/07/30 05:52:51;;;;;;;19.53;7.23;;;;;;;27.94;54.97;99014.30;129694;1092;114481;-61
2021/07/30 05:55:21;;;;;;;6.85;6.15;;;;;;;28.18;54.42;99018.49;129812;1093;22608;-62
2021/07/30 05:57:50;;;;;;;10.13;7.10;;;;;;;28.38;53.73;99009.49;129706;1093;114227;-61
2021/07/30 06:00:19;;;;;;;7.65;6.43;;;;;;;28.48;52.81;99007.95;129791;1093;23095;-61
2021/07/30 06:02:48;;;;;;;10.93;6.83;;;;;;;28.44;52.27;99007.91;129820;1092;22622;-61
2021/07/30 06:05:17;;;;;;;6.98;6.28;;;;;;;28.37;52.10;99007.08;129717;1093;114336;-61
2021/07/30 06:07:47;;;;;;;9.93;6.75;;;;;;;28.27;51.61;99000.21;129808;1092;22968;-61
2021/07/30 06:10:16;;;;;;;9.88;6.90;;;;;;;28.08;52.22;99006.02;129690;1093;113753;-61
2021/07/30 06:12:44;;;;;;;8.68;6.68;;;;;;;27.84;52.76;99006.61;129784;1093;23185;-61
2021/07/30 06:15:13;;;;;;;8.95;7.53;;;;;;;27.60;53.17;99007.95;129682;1092;114589;-61
2021/07/30 06:17:43;;;;;;;7.60;6.70;;;;;;;27.33;53.49;99005.25;129796;1092;22510;-60
2021/07/30 06:20:13;;;;;;;8.53;6.80;;;;;;;27.06;54.37;99003.72;129781;1093;22602;-60
2021/07/30 06:22:42;;;;;;;8.55;7.70;;;;;;;26.86;54.64;98991.03;129693;1093;114343;-61
2021/07/30 06:25:12;;;;;;;8.40;7.05;;;;;;;26.68;55.87;98997.22;129819;1093;22533;-62
2021/07/30 06:27:41;;;;;;;8.60;7.43;;;;;;;26.55;56.20;98998.59;129731;1093;113786;-61
2021/07/30 06:30:10;;;;;;;8.23;7.40;;;;;;;26.45;55.68;98996.46;129804;1092;22595;-64
2021/07/30 06:32:39;;;;;;;9.10;8.20;;;;;;;26.30;55.96;99003.82;129778;1093;23439;-62
2021/07/30 06:35:09;;;;;;;12.90;8.83;;;;;;;26.18;56.68;99004.00;129737;1093;112848;-63
2021/07/30 06:37:38;;;;;;;11.35;7.85;;;;;;;26.05;57.22;99002.59;129795;1093;22506;-62
2021/07/30 06:40:07;;;;;;;8.95;7.90;;;;;;;25.95;57.11;98992.06;129712;1093;113959;-62
2021/07/30 06:42:37;;;;;;;8.53;7.40;;;;;;;25.88;56.92;98998.31;129837;1093;22649;-62
2021/07/30 06:45:07;;;;;;;10.35;8.03;;;;;;;25.85;57.57;98998.24;129705;1092;113879;-62
2021/07/30 06:47:38;;;;;;;9.45;7.55;;;;;;;25.81;56.57;98992.63;129829;1093;22520;-63
2021/07/30 06:50:08;;;;;;;10.53;7.60;;;;;;;25.77;56.24;98997.33;129839;1093;22667;-63
2021/07/30 06:52:37;;;;;;;8.08;7.30;;;;;;;25.71;57.03;98999.61;129702;1093;113966;-64
2021/07/30 06:55:06;;;;;;;8.33;7.48;;;;;;;25.69;57.08;98988.01;129818;1093;22967;-63
2021/07/30 06:57:35;;;;;;;8.75;7.85;;;;;;;25.70;56.95;98991.61;129735;1093;114872;-63
2021/07/30 07:00:05;;;;;;;10.05;7.73;;;;;;;25.68;57.34;98986.39;129821;1092;23274;-63
2021/07/30 07:02:34;;;;;;;10.90;8.05;;;;;;;25.66;57.61;98991.56;129807;1093;22521;-63
2021/07/30 07:05:04;;;;;;;12.70;7.10;;;;;;;25.65;56.41;98995.53;129666;1093;114300;-63
2021/07/30 07:07:33;;;;;;;10.63;6.37;;;;;;;25.63;55.94;98986.72;129829;1093;22560;-63
2021/07/30 07:10:03;;;;;;;8.55;7.65;;;;;;;25.61;56.14;98988.23;129747;1092;114033;-63
2021/07/30 07:12:31;;;;;;;8.63;7.23;;;;;;;25.61;57.11;98982.66;129856;1092;22598;-63
2021/07/30 07:15:02;;;;;;;10.23;6.70;;;;;;;25.63;56.56;98992.30;129728;1092;116205;-63
2021/07/30 07:17:31;;;;;;;7.60;5.83;;;;;;;25.63;55.00;98992.30;129781;1092;22583;-63
2021/07/30 07:20:00;;;;;;;7.20;6.20;;;;;;;25.63;54.77;98992.30;129862;1092;22560;-63
2021/07/30 07:22:30;;;;;;;7.68;5.90;;;;;;;25.66;55.66;98997.14;129692;1093;113764;-63
2021/07/30 07:24:59;;;;;;;7.70;6.90;;;;;;;25.71;55.73;98999.61;129834;1093;22541;-63
2021/07/30 07:27:28;;;;;;;9.93;7.17;;;;;;;25.77;55.97;98994.54;129690;1093;114343;-63
2021/07/30 07:29:57;;;;;;;19.25;6.68;;;;;;;25.82;55.54;98999.82;129805;1093;22624;-63
2021/07/30 07:32:26;;;;;;;9.58;6.33;;;;;;;25.86;54.83;99000.66;129842;1093;22551;-63
2021/07/30 07:34:55;;;;;;;9.45;6.35;;;;;;;25.91;54.22;99002.35;129734;1093;113627;-63
2021/07/30 07:37:24;;;;;;;9.43;7.03;;;;;;;25.94;53.37;99001.61;129852;1093;22608;-63
2021/07/30 07:39:53;;;;;;;7.88;7.00;;;;;;;25.93;53.69;99000.00;129712;1093;113556;-64
2021/07/30 07:42:22;;;;;;;8.05;6.63;;;;;;;25.95;54.70;99000.44;129846;1092;22506;-65
2021/07/30 07:44:52;;;;;;;7.35;6.58;;;;;;;26.01;54.83;98996.13;129789;1092;22591;-64
2021/07/30 07:47:21;;;;;;;9.25;7.23;;;;;;;26.05;54.54;99005.38;129745;1092;113490;-64
2021/07/30 07:49:50;;;;;;;9.28;7.23;;;;;;;26.08;54.27;99007.44;129823;1092;22688;-64
2021/07/30 07:52:19;;;;;;;9.70;7.08;;;;;;;26.07;53.23;99008.61;129722;1093;113844;-64
2021/07/30 07:55:08;;;;;;;11.48;6.78;;;;;;;26.07;53.64;99014.20;129856;1093;22627;-64
2021/07/30 07:57:43;;;;;;;8.45;6.98;;;;;;;26.06;53.96;99010.59;129745;1093;116342;-64
2021/07/30 08:00:12;;;;;;;7.15;6.30;;;;;;;26.10;53.98;99016.25;129846;1092;22621;-64
2021/07/30 08:02:42;;;;;;;7.45;6.33;;;;;;;26.16;53.23;99013.92;129843;1092;22590;-64
2021/07/30 08:05:11;;;;;;;7.65;6.25;;;;;;;26.21;53.08;99014.42;129716;1093;113770;-64
2021/07/30 08:07:59;;;;;;;14.75;6.58;;;;;;;26.28;53.94;99010.92;129817;1093;22571;-64
2021/07/30 08:10:28;;;;;;;6.80;6.00;;;;;;;26.35;53.62;99020.27;129682;1093;114438;-64
2021/07/30 08:13:00;;;;;;;7.45;6.20;;;;;;;26.46;52.81;99011.23;129805;1092;23377;-64
2021/07/30 08:15:29;;;;;;;6.45;5.85;;;;;;;26.53;51.99;99026.14;129673;1093;114097;-64
2021/07/30 08:17:58;;;;;;;12.25;6.25;;;;;;;26.55;53.16;99011.77;129807;1092;22728;-64
2021/07/30 08:20:27;;;;;;;8.33;6.23;;;;;;;26.67;53.36;99006.78;129814;1093;22587;-64
2021/07/30 08:22:56;;;;;;;15.83;6.70;;;;;;;26.75;52.32;99019.66;129721;1093;113666;-64
2021/07/30 08:25:25;;;;;;;8.43;6.88;;;;;;;26.79;52.48;99021.70;129814;1092;23221;-64
2021/07/30 08:27:53;;;;;;;8.33;6.40;;;;;;;26.79;51.39;99011.33;129673;1093;113744;-64
2021/07/30 08:30:22;;;;;;;8.43;6.68;;;;;;;26.80;50.97;99015.73;129805;1092;22550;-64
2021/07/30 08:32:51;;;;;;;6.95;5.88;;;;;;;26.71;50.58;99023.58;129864;1093;22560;-64
2021/07/30 08:35:21;;;;;;;8.38;6.03;;;;;;;26.63;50.74;99010.70;129741;1092;113784;-64
2021/07/30 08:37:50;;;;;;;7.63;5.93;;;;;;;26.55;51.09;99018.16;129830;1093;22620;-65
2021/07/30 08:40:19;;;;;;;6.70;5.50;;;;;;;26.51;51.90;99013.72;129748;1093;114103;-63
2021/07/30 08:42:48;;;;;;;8.45;5.83;;;;;;;26.50;51.25;99012.91;129790;1093;22526;-64
2021/07/30 08:45:17;;;;;;;5.93;5.33;;;;;;;26.53;48.31;99014.95;129718;1093;113861;-64
2021/07/30 08:47:46;;;;;;;5.20;4.70;;;;;;;26.54;47.65;99013.78;129804;1093;23158;-64
2021/07/30 08:50:14;;;;;;;7.85;4.70;;;;;;;26.59;47.46;99021.82;129865;1092;22588;-64
2021/07/30 08:52:44;;;;;;;16.10;6.05;;;;;;;26.61;47.99;99021.45;129715;1093;113887;-64
2021/07/30 08:55:15;;;;;;;5.35;4.25;;;;;;;26.63;47.85;99019.08;129829;1092;23359;-64
2021/07/30 08:57:44;;;;;;;7.83;5.68;;;;;;;26.64;48.03;99021.50;129758;1093;113811;-64
2021/07/30 09:00:14;;;;;;;6.78;4.98;;;;;;;26.67;47.44;99017.16;129850;1093;22597;-64
2021/07/30 09:02:44;;;;;;;7.35;5.18;;;;;;;26.70;46.12;99027.55;129760;1093;22577;-64
2021/07/30 09:05:28;;;;;;;5.75;3.93;;;;;;;26.72;45.17;99014.81;129745;1092;113773;-64
2021/07/30 09:08:08;;;;;;;4.35;3.95;;;;;;;26.75;45.12;99014.06;129827;1092;22561;-64
2021/07/30 09:10:41;;;;;;;8.05;5.30;;;;;;;26.78;44.64;99012.52;129645;1093;113968;-64
2021/07/30 09:13:26;;;;;;;5.78;4.90;;;;;;;26.81;46.13;99011.77;129770;1093;22543;-64
2021/07/30 09:16:14;;;;;;;4.43;4.03;;;;;;;26.84;44.76;99010.98;129693;1093;113646;-64
2021/07/30 09:18:44;;;;;;;5.88;3.95;;;;;;;26.86;43.91;99002.22;129813;1093;22617;-63
2021/07/30 09:21:33;;;;;;;3.95;3.30;;;;;;;26.93;43.08;99007.92;129674;1092;113828;-64
2021/07/30 09:24:08;;;;;;;6.63;3.48;;;;;;;26.99;42.86;99009.20;129799;1093;23081;-64
2021/07/30 09:26:43;;;;;;;5.95;3.40;;;;;;;27.02;41.69;99000.88;129801;1093;22575;-64
2021/07/30 09:29:14;;;;;;;4.40;3.73;;;;;;;27.07;41.88;98997.75;129633;1092;113879;-64
2021/07/30 09:31:44;;;;;;;4.20;3.55;;;;;;;27.12;42.70;99009.80;129772;1093;22577;-64
2021/07/30 09:34:20;;;;;;;9.98;3.20;;;;;;;27.16;42.60;99002.23;129645;1093;113264;-64
2021/07/30 09:36:54;;;;;;;5.30;3.45;;;;;;;27.19;43.19;99004.27;129784;1093;22558;-64
2021/07/30 09:39:26;;;;;;;5.00;4.00;;;;;;;27.21;42.38;98996.31;129664;1092;114512;-64
2021/07/30 09:42:01;;;;;;;4.63;3.15;;;;;;;27.20;42.27;98998.30;130211;1089;23348;-64
2021/07/30 09:44:54;;;;;;;8.75;4.20;;;;;;;27.23;44.15;99000.34;130489;1090;22544;-64
2021/07/30 09:47:33;;;;;;;8.00;4.10;;;;;;;27.28;44.36;98996.38;130342;1089;113480;-64
2021/07/30 09:50:07;;;;;;;7.55;4.03;;;;;;;27.33;44.37;98990.45;130493;1090;23098;-64
2021/07/30 09:52:38;;;;;;;5.30;3.88;;;;;;;27.38;43.47;98987.32;130391;1088;114078;-64
2021/07/30 09:55:09;;;;;;;7.05;4.33;;;;;;;27.40;44.40;98996.95;130396;1090;22625;-64
2021/07/30 09:57:39;;;;;;;4.88;3.60;;;;;;;27.45;43.00;98995.78;130424;1088;113822;-64
2021/07/30 10:00:09;;;;;;;6.90;4.38;;;;;;;27.49;42.34;98985.44;130287;1089;23097;-64
2021/07/30 10:02:41;;;;;;;4.73;4.23;;;;;;;27.52;41.73;98990.27;130485;1089;23131;-64
2021/07/30 10:05:16;;;;;;;4.35;3.95;;;;;;;27.57;40.87;98997.52;130318;1089;114124;-64
2021/07/30 10:08:51;;;;;;;7.00;3.97;;;;;;;27.55;42.35;98991.50;125635;1091;22763;-64
2021/07/30 10:11:21;;;;;;;4.63;3.88;;;;;;;27.55;41.47;98989.51;129764;1093;113869;-65
2021/07/30 10:14:02;;;;;;;5.83;3.80;;;;;;;27.55;42.26;98986.70;129845;1093;23215;-63
2021/07/30 10:16:59;;;;;;;5.15;3.43;;;;;;;27.58;41.34;98997.14;129758;1093;114151;-65
2021/07/30 10:19:29;;;;;;;5.60;3.33;;;;;;;27.60;40.17;98989.17;129869;1093;22559;-63
2021/07/30 10:21:59;;;;;;;4.70;3.50;;;;;;;27.62;39.52;98992.39;129730;1093;113858;-62
2021/07/30 10:24:29;;;;;;;3.58;3.28;;;;;;;27.63;39.97;98994.00;129792;1092;22536;-63
2021/07/30 10:27:02;;;;;;;6.53;3.80;;;;;;;27.65;39.86;98983.23;129767;1093;23661;-63
2021/07/30 10:30:00;;;;;;;4.13;3.73;;;;;;;27.67;40.81;98986.45;129706;1093;113547;-63
2021/07/30 10:32:48;;;;;;;5.40;4.10;;;;;;;27.68;41.10;98981.66;129799;1093;23394;-63
2021/07/30 10:35:26;;;;;;;9.48;4.40;;;;;;;27.70;40.69;98979.29;129681;1093;113746;-63
2021/07/30 10:38:24;;;;;;;7.48;3.95;;;;;;;27.68;40.93;98979.67;129841;1093;22591;-63
2021/07/30 10:40:59;;;;;;;4.28;3.88;;;;;;;27.65;41.49;98986.03;129705;1092;114853;-65
2021/07/30 10:43:28;;;;;;;3.93;3.60;;;;;;;27.66;41.13;98979.25;129822;1093;22577;-62
2021/07/30 10:46:10;;;;;;;4.93;3.70;;;;;;;27.70;40.74;98973.69;129687;1092;113733;-62
2021/07/30 10:48:43;;;;;;;3.73;3.33;;;;;;;27.74;41.03;98972.52;129878;1093;22589;-62
2021/07/30 10:51:38;;;;;;;5.40;3.95;;;;;;;27.77;40.50;98970.94;129703;1093;113840;-63
2021/07/30 10:54:08;;;;;;;5.00;4.13;;;;;;;27.80;41.18;98965.38;129836;1093;23070;-63
2021/07/30 10:56:37;;;;;;;4.03;3.30;;;;;;;27.86;41.49;98963.02;129816;1093;22669;-63
2021/07/30 10:59:06;;;;;;;4.78;4.25;;;;;;;27.95;43.02;98955.11;129695;1093;113922;-64
2021/07/30 11:01:39;;;;;;;4.10;3.68;;;;;;;28.04;42.26;98955.56;129803;1093;22577;-64
2021/07/30 11:04:08;;;;;;;6.05;4.03;;;;;;;28.12;41.46;98965.65;129732;1093;113696;-64
2021/07/30 11:06:44;;;;;;;4.70;3.90;;;;;;;28.20;40.35;98952.52;129805;1093;22671;-64
2021/07/30 11:09:16;;;;;;;6.88;3.33;;;;;;;28.23;40.51;98950.94;129745;1092;113731;-64
2021/07/30 11:11:51;;;;;;;5.43;3.33;;;;;;;28.28;39.37;98944.98;129808;1093;22559;-64
2021/07/30 11:14:24;;;;;;;7.93;3.90;;;;;;;28.32;39.71;98943.78;129833;1092;22590;-63
2021/07/30 11:16:55;;;;;;;5.10;4.60;;;;;;;28.36;40.00;98941.82;129714;1093;113824;-63
2021/07/30 11:19:34;;;;;;;5.28;4.00;;;;;;;28.38;40.38;98952.64;129806;1092;22549;-63
2021/07/30 11:22:04;;;;;;;12.40;6.05;;;;;;;28.38;40.72;98950.64;129737;1093;113792;-63
2021/07/30 11:24:40;;;;;;;14.68;4.75;;;;;;;28.38;40.92;98942.23;129841;1091;22659;-63
2021/07/30 11:27:10;;;;;;;5.28;4.55;;;;;;;28.40;40.64;98944.66;129862;1093;22629;-63
2021/07/30 11:29:47;;;;;;;5.75;4.40;;;;;;;28.41;40.06;98941.46;129719;1093;113542;-63
2021/07/30 11:32:17;;;;;;;5.03;3.73;;;;;;;28.42;40.45;98943.04;129858;1093;22564;-63
2021/07/30 11:34:50;;;;;;;6.40;4.33;;;;;;;28.42;40.70;98928.25;129757;1093;113581;-63